Time;durP1;ratioP1;P1;durP2;ratioP2;P2;SDS_P1;SDS_P2;PMS_P1;PMS_P2;Temp;Humidity;BMP_temperature;BMP_pressure;BME280_temperature;BME280_humidity;BME280_pressure;Samples;Min_cycle;Max_cycle;Signal;HPM_P1;HPM_P2
2022/10/23 00:02:11;;;;;;;8.82;4.28;;;15.50;75.90;;;;;;4867691;29;20427;-75
2022/10/23 00:04:36;;;;;;;14.63;5.70;;;15.50;75.90;;;;;;4868463;29;20139;-75
2022/10/23 00:07:02;;;;;;;10.07;4.53;;;15.50;75.90;;;;;;4867777;29;20057;-75
2022/10/23 00:09:28;;;;;;;12.93;5.50;;;15.50;75.90;;;;;;4884905;29;20080;-74
2022/10/23 00:11:53;;;;;;;8.90;4.85;;;15.50;75.90;;;;;;4883895;29;20447;-74
2022/10/23 00:14:22;;;;;;;12.57;5.65;;;15.50;75.90;;;;;;4884862;29;20057;-73
2022/10/23 00:16:47;;;;;;;10.10;5.45;;;15.50;75.80;;;;;;4883935;29;20049;-75
2022/10/23 00:19:13;;;;;;;7.60;4.60;;;15.50;75.80;;;;;;4884361;29;20056;-74
2022/10/23 00:21:39;;;;;;;12.90;4.60;;;15.50;75.90;;;;;;4883758;29;20360;-74
2022/10/23 00:24:06;;;;;;;11.95;5.13;;;15.50;75.90;;;;;;4883894;29;20076;-75
2022/10/23 00:26:31;;;;;;;12.05;5.07;;;15.50;75.90;;;;;;4884683;29;20064;-73
2022/10/23 00:28:57;;;;;;;10.48;4.80;;;15.50;75.90;;;;;;4883875;29;20049;-76
2022/10/23 00:31:23;;;;;;;12.50;5.15;;;15.50;75.90;;;;;;4883280;29;20048;-74
2022/10/23 00:33:50;;;;;;;9.73;5.18;;;15.50;75.90;;;;;;4883457;29;20053;-75
2022/10/23 00:36:18;;;;;;;12.77;5.82;;;15.50;75.90;;;;;;4883673;29;20053;-75
2022/10/23 00:38:44;;;;;;;8.73;4.85;;;15.50;75.80;;;;;;4867512;29;20072;-75
2022/10/23 00:41:22;;;;;;;11.85;5.70;;;15.40;75.80;;;;;;4882676;29;20057;-75
2022/10/23 00:44:07;;;;;;;9.52;5.75;;;15.40;75.80;;;;;;4883789;29;20435;-75
2022/10/23 00:46:35;;;;;;;13.52;6.13;;;15.40;75.80;;;;;;4883530;29;20049;-73
2022/10/23 00:49:02;;;;;;;12.65;6.07;;;15.50;76.00;;;;;;4883690;29;20057;-74
2022/10/23 00:51:37;;;;;;;10.15;5.72;;;15.50;76.00;;;;;;4883582;29;20348;-73
2022/10/23 00:54:03;;;;;;;12.05;5.95;;;15.40;75.90;;;;;;4867322;29;20073;-74
2022/10/23 00:56:32;;;;;;;10.88;5.93;;;15.40;75.90;;;;;;4866954;29;20103;-76
2022/10/23 00:58:57;;;;;;;9.88;5.63;;;15.40;75.90;;;;;;4883178;29;20049;-73
2022/10/23 01:01:23;;;;;;;10.35;5.90;;;15.40;75.90;;;;;;4883075;29;20041;-75
2022/10/23 01:03:50;;;;;;;12.25;6.07;;;15.40;75.90;;;;;;4883306;29;20465;-76
2022/10/23 01:06:25;;;;;;;10.50;5.97;;;15.40;75.90;;;;;;4884025;29;20420;-74
2022/10/23 01:08:54;;;;;;;11.93;6.53;;;15.40;75.90;;;;;;4883101;29;20049;-76
2022/10/23 01:11:44;;;;;;;9.90;6.07;;;15.40;75.90;;;;;;4867052;29;20705;-73
2022/10/23 01:14:30;;;;;;;12.20;6.55;;;15.40;76.00;;;;;;4883203;29;20057;-76
2022/10/23 01:17:16;;;;;;;12.57;6.20;;;15.40;76.00;;;;;;4866781;29;20088;-75
2022/10/23 01:19:47;;;;;;;12.10;5.88;;;15.40;76.00;;;;;;4882978;29;20101;-75
2022/10/23 01:22:46;;;;;;;8.40;5.85;;;15.40;76.10;;;;;;4866742;29;20124;-75
2022/10/23 01:25:34;;;;;;;11.73;5.97;;;15.40;76.10;;;;;;4882497;29;20057;-75
2022/10/23 01:28:03;;;;;;;16.88;6.63;;;15.40;76.00;;;;;;4882842;29;20057;-75
2022/10/23 01:30:32;;;;;;;15.77;6.65;;;15.40;76.10;;;;;;4882470;29;20378;-75
2022/10/23 01:33:09;;;;;;;10.88;5.40;;;15.40;76.10;;;;;;4882822;29;20135;-73
2022/10/23 01:35:44;;;;;;;10.63;5.72;;;15.30;76.00;;;;;;4866278;29;20091;-74
2022/10/23 01:38:25;;;;;;;9.75;5.90;;;15.30;76.00;;;;;;4882280;29;20076;-74
2022/10/23 01:41:06;;;;;;;11.43;5.97;;;15.40;76.10;;;;;;4882460;29;20053;-73
2022/10/23 01:43:52;;;;;;;12.23;6.68;;;15.40;76.10;;;;;;4882716;29;20113;-72
2022/10/23 01:46:19;;;;;;;10.73;6.50;;;15.30;76.10;;;;;;4883222;29;20468;-75
2022/10/23 01:48:53;;;;;;;11.45;5.82;;;15.30;76.00;;;;;;4882482;29;20132;-76
2022/10/23 01:51:23;;;;;;;10.32;6.28;;;15.30;76.00;;;;;;4865709;29;20060;-75
2022/10/23 01:53:52;;;;;;;13.20;6.93;;;15.30;76.00;;;;;;4882533;29;20056;-74
2022/10/23 01:56:23;;;;;;;8.75;5.40;;;15.30;76.00;;;;;;4866389;29;20067;-75
2022/10/23 01:58:52;;;;;;;11.68;6.15;;;15.30;76.00;;;;;;4882542;29;20052;-73
2022/10/23 02:01:20;;;;;;;14.43;6.72;;;15.30;76.10;;;;;;4881407;29;20104;-74
2022/10/23 02:03:48;;;;;;;11.18;6.38;;;15.30;76.10;;;;;;4882561;29;20053;-75
2022/10/23 02:06:14;;;;;;;11.18;6.72;;;15.30;76.10;;;;;;4882409;29;20065;-74
2022/10/23 02:08:40;;;;;;;13.15;6.78;;;15.30;76.20;;;;;;4882361;29;20455;-77
2022/10/23 02:11:15;;;;;;;11.68;6.53;;;15.30;76.20;;;;;;4866012;29;20514;-74
2022/10/23 02:13:54;;;;;;;13.57;6.90;;;15.30;76.30;;;;;;4880693;29;20140;-74
2022/10/23 02:16:38;;;;;;;10.38;6.75;;;15.30;76.30;;;;;;4882015;29;20390;-74
2022/10/23 02:19:19;;;;;;;;;;;15.30;76.30;;;;;;4882182;29;20466;-73
2022/10/23 02:22:06;;;;;;;14.13;6.20;;;15.30;76.40;;;;;;4882332;29;19924;-76
2022/10/23 02:24:39;;;;;;;11.85;6.63;;;15.30;76.50;;;;;;4881804;29;20106;-77
2022/10/23 02:27:17;;;;;;;12.02;7.53;;;15.30;76.50;;;;;;4866001;29;20065;-75
2022/10/23 02:29:53;;;;;;;11.27;6.72;;;15.30;76.60;;;;;;4882014;29;20045;-73
2022/10/23 02:32:22;;;;;;;9.88;7.03;;;15.30;76.60;;;;;;4865662;29;20077;-75
2022/10/23 02:34:48;;;;;;;12.93;7.03;;;15.30;76.60;;;;;;4865263;29;20344;-75
2022/10/23 02:37:14;;;;;;;10.52;7.03;;;15.30;76.60;;;;;;4881624;29;20109;-74
2022/10/23 02:39:40;;;;;;;10.73;6.18;;;15.30;76.70;;;;;;4881989;29;20049;-74
2022/10/23 02:42:20;;;;;;;10.07;7.13;;;15.30;76.60;;;;;;4880953;29;20061;-74
2022/10/23 02:45:17;;;;;;;9.23;6.50;;;15.30;76.60;;;;;;4881417;29;20045;-74
2022/10/23 02:47:44;;;;;;;13.00;7.47;;;15.30;76.60;;;;;;4865138;29;20131;-75
2022/10/23 02:50:30;;;;;;;9.43;7.03;;;15.30;76.60;;;;;;4881407;29;20080;-75
2022/10/23 02:53:19;;;;;;;9.00;6.82;;;15.30;76.60;;;;;;4870575;29;20088;-74
2022/10/23 02:55:57;;;;;;;10.70;6.45;;;15.30;76.60;;;;;;4882071;29;20092;-76
2022/10/23 02:58:58;;;;;;;11.88;7.18;;;15.30;76.60;;;;;;4881182;29;20466;-74
2022/10/23 03:01:33;;;;;;;10.60;6.88;;;15.30;76.50;;;;;;4881477;29;20064;-75
2022/10/23 03:04:01;;;;;;;9.95;7.00;;;15.30;76.60;;;;;;4846639;29;20057;-74
2022/10/23 03:06:27;;;;;;;10.05;6.43;;;15.30;76.60;;;;;;4846649;29;20057;-74
2022/10/23 03:08:58;;;;;;;11.90;7.00;;;15.30;76.60;;;;;;4862104;29;20140;-75
2022/10/23 03:11:23;;;;;;;9.13;6.57;;;15.30;76.60;;;;;;4846485;29;20133;-74
2022/10/23 03:13:49;;;;;;;9.75;6.95;;;15.30;76.50;;;;;;4880416;29;20045;-75
2022/10/23 03:16:15;;;;;;;8.43;6.82;;;15.20;76.40;;;;;;4881103;29;20065;-75
2022/10/23 03:18:41;;;;;;;7.93;6.45;;;15.20;76.30;;;;;;4865407;29;20362;-75
2022/10/23 03:21:07;;;;;;;11.07;7.03;;;15.20;76.90;;;;;;4880963;29;20045;-73
2022/10/23 03:23:32;;;;;;;7.85;6.30;;;15.20;76.30;;;;;;4880911;29;20049;-75
2022/10/23 03:25:58;;;;;;;10.25;7.22;;;15.20;76.30;;;;;;4881032;29;20188;-75
2022/10/23 03:28:24;;;;;;;9.15;6.78;;;15.20;76.30;;;;;;4881305;29;20056;-74
2022/10/23 03:30:50;;;;;;;7.47;6.47;;;15.20;76.30;;;;;;4881433;29;20569;-74
2022/10/23 03:33:15;;;;;;;8.98;6.15;;;15.30;76.40;;;;;;4880751;29;20507;-75
2022/10/23 03:35:41;;;;;;;9.73;6.53;;;15.20;76.40;;;;;;4865335;29;20049;-74
2022/10/23 03:38:07;;;;;;;7.05;6.05;;;15.20;76.40;;;;;;4880999;29;20041;-77
2022/10/23 03:40:32;;;;;;;10.52;6.78;;;15.20;76.40;;;;;;4881130;29;20041;-75
2022/10/23 03:42:58;;;;;;;8.85;6.70;;;15.20;76.40;;;;;;4880698;29;20077;-75
2022/10/23 03:45:24;;;;;;;10.57;7.07;;;15.20;76.40;;;;;;4880908;29;20057;-73
2022/10/23 03:47:50;;;;;;;8.48;6.75;;;15.20;76.40;;;;;;4881293;29;20049;-75
2022/10/23 03:50:17;;;;;;;10.05;6.32;;;15.20;76.40;;;;;;4880896;29;20455;-75
2022/10/23 03:52:44;;;;;;;7.43;6.22;;;15.20;76.50;;;;;;4848878;29;20061;-74
2022/10/23 03:55:11;;;;;;;11.15;7.10;;;15.20;76.50;;;;;;4881171;29;20060;-74
2022/10/23 03:57:37;;;;;;;9.88;6.35;;;15.20;76.50;;;;;;4880772;29;20362;-75
2022/10/23 04:00:04;;;;;;;8.88;6.30;;;15.20;76.60;;;;;;4880518;29;20128;-76
2022/10/23 04:02:30;;;;;;;9.63;6.15;;;15.20;76.60;;;;;;4880550;29;20073;-75
2022/10/23 04:04:56;;;;;;;10.23;6.10;;;15.20;76.60;;;;;;4880866;29;20045;-74
2022/10/23 04:07:22;;;;;;;11.15;6.55;;;15.20;76.60;;;;;;4880705;29;20059;-74
2022/10/23 04:09:47;;;;;;;9.50;6.22;;;15.20;76.70;;;;;;4880910;29;20111;-76
2022/10/23 04:12:13;;;;;;;11.65;6.55;;;15.20;76.70;;;;;;4880454;29;20048;-75
2022/10/23 04:14:39;;;;;;;10.30;6.15;;;15.20;76.70;;;;;;4880753;29;20060;-74
2022/10/23 04:17:05;;;;;;;9.25;6.47;;;15.20;76.80;;;;;;4882147;29;20049;-73
2022/10/23 04:19:30;;;;;;;10.00;5.93;;;15.20;76.80;;;;;;4868306;29;20151;-75
2022/10/23 04:21:56;;;;;;;8.25;5.95;;;15.20;76.90;;;;;;4883824;29;20478;-73
2022/10/23 04:24:23;;;;;;;9.35;6.22;;;15.20;76.90;;;;;;4883794;29;20071;-74
2022/10/23 04:26:49;;;;;;;8.52;6.15;;;15.20;76.90;;;;;;4884648;29;20057;-75
2022/10/23 04:29:15;;;;;;;10.95;6.18;;;15.20;76.90;;;;;;4867627;29;20393;-73
2022/10/23 04:31:40;;;;;;;9.27;6.43;;;15.20;76.90;;;;;;4867523;29;20056;-75
2022/10/23 04:34:06;;;;;;;7.60;5.50;;;15.20;77.00;;;;;;4867655;29;20366;-73
2022/10/23 04:36:32;;;;;;;7.68;6.18;;;15.20;77.00;;;;;;4883926;29;20055;-73
2022/10/23 04:38:57;;;;;;;8.23;6.15;;;15.20;77.10;;;;;;4867277;29;20084;-75
2022/10/23 04:41:23;;;;;;;9.43;4.97;;;15.20;77.10;;;;;;4883587;29;20037;-74
2022/10/23 04:43:49;;;;;;;9.82;6.25;;;15.20;77.10;;;;;;4883553;29;20060;-73
2022/10/23 04:46:14;;;;;;;8.13;5.60;;;15.20;77.10;;;;;;4867815;29;20470;-73
2022/10/23 04:48:40;;;;;;;8.52;5.47;;;15.20;77.10;;;;;;4867307;29;20081;-73
2022/10/23 04:51:06;;;;;;;7.13;5.40;;;15.20;77.10;;;;;;4883384;29;20049;-75
2022/10/23 04:53:32;;;;;;;6.63;5.55;;;15.20;77.20;;;;;;4883653;29;20053;-75
2022/10/23 04:55:58;;;;;;;7.28;5.25;;;15.20;77.20;;;;;;4867267;29;20083;-74
2022/10/23 04:58:26;;;;;;;11.45;5.28;;;15.20;77.10;;;;;;4883313;29;20041;-75
2022/10/23 05:31:05;;;;;;;9.30;5.57;;;15.80;77.60;;;;;;5041072;23;20048;-75
2022/10/23 05:33:33;;;;;;;14.13;5.38;;;15.80;77.40;;;;;;4901551;29;20128;-78
2022/10/23 05:36:00;;;;;;;10.10;5.47;;;15.80;77.40;;;;;;4885086;29;20461;-75
2022/10/23 05:38:32;;;;;;;10.82;5.13;;;15.90;77.60;;;;;;4900269;29;20135;-77
2022/10/23 05:40:58;;;;;;;13.15;5.10;;;16.00;77.70;;;;;;4899976;29;20287;-77
2022/10/23 05:43:26;;;;;;;13.93;4.43;;;16.00;77.70;;;;;;4901080;29;20079;-77
2022/10/23 05:45:52;;;;;;;12.18;4.93;;;16.10;77.80;;;;;;4868724;29;20056;-77
2022/10/23 05:48:18;;;;;;;14.30;4.55;;;16.20;78.00;;;;;;4901065;29;20064;-76
2022/10/23 05:50:44;;;;;;;12.80;5.07;;;16.30;78.00;;;;;;4901254;29;20087;-78
2022/10/23 05:53:10;;;;;;;16.10;4.72;;;16.40;78.20;;;;;;4901102;29;20334;-79
2022/10/23 05:55:37;;;;;;;16.23;4.57;;;16.40;78.50;;;;;;4901086;29;20091;-78
2022/10/23 05:58:05;;;;;;;12.50;3.85;;;16.50;78.60;;;;;;4901082;29;20128;-79
2022/10/23 06:00:31;;;;;;;15.73;3.67;;;16.60;78.70;;;;;;4884379;29;20096;-76
2022/10/23 06:03:01;;;;;;;15.88;3.95;;;16.60;78.60;;;;;;4883778;29;20107;-79
2022/10/23 06:05:27;;;;;;;16.75;4.25;;;16.70;78.70;;;;;;4883941;29;20052;-78
2022/10/23 06:07:57;;;;;;;14.25;3.88;;;16.70;78.70;;;;;;4883603;29;20048;-81
2022/10/23 06:10:23;;;;;;;20.48;4.22;;;16.70;78.50;;;;;;4900959;29;20063;-81
2022/10/23 06:12:49;;;;;;;15.68;3.53;;;16.70;78.70;;;;;;4884312;29;20056;-80
2022/10/23 06:15:15;;;;;;;12.38;3.78;;;16.70;78.90;;;;;;4900850;29;20049;-79
2022/10/23 06:17:41;;;;;;;13.65;4.07;;;16.70;79.00;;;;;;4900238;29;20053;-79
2022/10/23 06:20:07;;;;;;;12.45;5.30;;;16.70;78.90;;;;;;4883874;29;20485;-78
2022/10/23 06:22:33;;;;;;;20.48;5.82;;;16.80;78.60;;;;;;4899922;29;20044;-79
2022/10/23 06:24:59;;;;;;;17.50;6.00;;;16.80;78.60;;;;;;4900792;29;20040;-78
2022/10/23 06:27:24;;;;;;;14.48;6.55;;;16.70;78.50;;;;;;4900689;29;20044;-81
2022/10/23 06:29:50;;;;;;;17.30;6.15;;;16.70;78.30;;;;;;4868813;29;20052;-81
2022/10/23 06:32:17;;;;;;;20.70;7.88;;;16.70;78.20;;;;;;4882995;29;20067;-76
2022/10/23 06:34:43;;;;;;;13.63;6.35;;;16.70;78.10;;;;;;4900437;29;20064;-76
2022/10/23 06:37:08;;;;;;;19.80;6.88;;;16.70;77.70;;;;;;4899953;29;20540;-78
2022/10/23 06:39:35;;;;;;;17.92;6.45;;;16.70;77.80;;;;;;4883369;29;20059;-78
2022/10/23 06:42:02;;;;;;;20.83;4.93;;;16.70;77.20;;;;;;4883622;29;20430;-76
2022/10/23 06:44:27;;;;;;;16.88;5.75;;;16.50;76.40;;;;;;4899964;29;20044;-77
2022/10/23 06:46:53;;;;;;;21.38;5.78;;;16.50;76.80;;;;;;4900268;29;20135;-77
2022/10/23 06:49:19;;;;;;;14.25;4.63;;;16.50;77.00;;;;;;4899870;29;20053;-76
2022/10/23 06:51:44;;;;;;;18.05;6.13;;;16.50;76.70;;;;;;4899886;29;20070;-77
2022/10/23 06:54:11;;;;;;;13.00;6.88;;;16.40;76.80;;;;;;4900675;29;20060;-75
2022/10/23 06:56:37;;;;;;;14.15;7.63;;;16.40;77.20;;;;;;4900382;29;20131;-77
2022/10/23 06:59:06;;;;;;;9.82;7.47;;;16.50;75.90;;;;;;4899793;29;20044;-78
2022/10/23 07:01:32;;;;;;;10.38;7.30;;;16.40;74.90;;;;;;4900304;29;20123;-77
2022/10/23 07:03:58;;;;;;;11.60;7.18;;;16.30;74.60;;;;;;4899842;29;20116;-76
2022/10/23 07:06:24;;;;;;;14.38;7.43;;;16.20;75.20;;;;;;4899932;29;20084;-76
2022/10/23 07:08:49;;;;;;;10.70;6.88;;;16.20;75.50;;;;;;4882289;29;20055;-78
2022/10/23 07:11:15;;;;;;;10.20;6.18;;;16.20;75.90;;;;;;4868272;29;20122;-77
2022/10/23 07:13:43;;;;;;;11.15;5.68;;;16.20;76.00;;;;;;4900088;29;20080;-77
2022/10/23 07:16:20;;;;;;;8.48;6.07;;;16.20;76.20;;;;;;4900471;29;20469;-77
2022/10/23 07:18:47;;;;;;;10.98;6.72;;;16.30;76.40;;;;;;4883071;29;20052;-77
2022/10/23 07:21:13;;;;;;;8.75;5.90;;;16.30;76.50;;;;;;4900078;29;20049;-77
2022/10/23 07:23:39;;;;;;;8.52;5.70;;;16.30;76.50;;;;;;4883645;29;20465;-79
2022/10/23 07:26:14;;;;;;;8.35;5.72;;;16.30;76.60;;;;;;4899993;29;20053;-77
2022/10/23 07:28:41;;;;;;;9.57;5.75;;;16.30;76.60;;;;;;4899888;29;21964;-76
2022/10/23 07:31:07;;;;;;;12.55;6.18;;;16.30;76.70;;;;;;4899346;29;20056;-78
2022/10/23 07:33:33;;;;;;;10.38;6.03;;;16.30;76.70;;;;;;4900000;29;20433;-78
2022/10/23 07:35:59;;;;;;;8.65;5.25;;;16.40;76.80;;;;;;4899856;29;20056;-75
2022/10/23 07:38:26;;;;;;;7.80;5.53;;;16.40;76.90;;;;;;4899420;29;20045;-76
2022/10/23 07:40:52;;;;;;;7.22;4.78;;;16.40;76.90;;;;;;4882766;29;20041;-77
2022/10/23 07:43:19;;;;;;;9.88;5.03;;;16.40;76.70;;;;;;4899512;29;20072;-78
2022/10/23 07:48:53;;;;;;;9.60;5.07;;;16.40;76.70;;;;;;4876790;29;20051;-77
2022/10/23 07:51:19;;;;;;;13.00;5.05;;;16.40;76.90;;;;;;4901727;29;20041;-78
2022/10/23 07:53:45;;;;;;;11.40;5.10;;;16.40;77.00;;;;;;4871181;29;20048;-77
2022/10/23 07:56:30;;;;;;;12.25;4.72;;;16.40;77.00;;;;;;4886641;29;20052;-82
2022/10/23 07:59:02;;;;;;;11.00;5.07;;;16.40;77.00;;;;;;4885825;29;20466;-80
2022/10/23 08:01:33;;;;;;;14.30;4.82;;;16.30;77.00;;;;;;4886378;29;20052;-79
2022/10/23 08:03:59;;;;;;;13.13;4.25;;;16.30;77.20;;;;;;4871530;29;20067;-77
2022/10/23 08:06:26;;;;;;;13.35;4.13;;;16.30;77.40;;;;;;4886172;29;20048;-74
2022/10/23 08:08:51;;;;;;;14.07;4.35;;;16.30;77.50;;;;;;4902620;29;20080;-75
2022/10/23 08:11:26;;;;;;;10.77;4.43;;;16.30;77.70;;;;;;4902565;29;20040;-77
2022/10/23 08:13:59;;;;;;;13.13;5.07;;;16.30;77.80;;;;;;4902853;29;20080;-76
2022/10/23 08:16:25;;;;;;;11.85;3.88;;;16.30;77.90;;;;;;4870942;29;20053;-78
2022/10/23 08:18:54;;;;;;;15.38;3.65;;;16.30;78.00;;;;;;4902417;29;20469;-75
2022/10/23 08:21:19;;;;;;;18.30;4.47;;;16.30;78.00;;;;;;4902416;29;20037;-77
2022/10/23 08:23:45;;;;;;;12.60;5.30;;;16.30;78.10;;;;;;4902811;29;20056;-74
2022/10/23 08:26:13;;;;;;;11.68;3.58;;;16.30;78.20;;;;;;4903476;29;20063;-75
2022/10/23 08:28:38;;;;;;;11.88;4.00;;;16.30;78.40;;;;;;4903106;29;20057;-74
2022/10/23 08:31:12;;;;;;;10.50;3.80;;;16.30;78.50;;;;;;4902315;29;20396;-75
2022/10/23 08:33:38;;;;;;;8.07;3.78;;;16.30;78.40;;;;;;4902612;29;20124;-77
2022/10/23 08:36:05;;;;;;;13.50;3.78;;;16.30;78.50;;;;;;4902339;29;20403;-76
2022/10/23 08:38:30;;;;;;;13.07;3.58;;;16.30;78.60;;;;;;4902327;29;20466;-76
2022/10/23 08:40:56;;;;;;;12.35;4.45;;;16.30;78.80;;;;;;4902655;29;20134;-81
2022/10/23 08:43:46;;;;;;;15.20;6.40;;;16.30;78.80;;;;;;4902373;29;20062;-81
2022/10/23 08:46:16;;;;;;;12.13;6.22;;;16.40;78.70;;;;;;4902299;29;20040;-78
2022/10/23 08:48:51;;;;;;;15.10;7.25;;;16.40;78.50;;;;;;4902106;29;20131;-80
2022/10/23 08:51:24;;;;;;;16.67;7.07;;;16.40;78.40;;;;;;4870194;29;20040;-80
2022/10/23 08:54:03;;;;;;;19.42;7.15;;;16.40;78.30;;;;;;4885359;29;20080;-73
2022/10/23 08:56:33;;;;;;;14.60;6.43;;;16.40;78.20;;;;;;4885259;29;20048;-74
2022/10/23 08:59:38;;;;;;;17.23;6.53;;;16.30;78.30;;;;;;4885559;29;20056;-74
2022/10/23 09:02:07;;;;;;;15.80;7.45;;;16.30;78.30;;;;;;4900951;29;20084;-77
2022/10/23 09:04:33;;;;;;;10.10;6.68;;;16.40;78.30;;;;;;4901777;29;20068;-74
2022/10/23 09:07:02;;;;;;;16.88;7.20;;;16.40;77.80;;;;;;4901205;29;20373;-76
2022/10/23 09:09:37;;;;;;;15.20;6.82;;;16.40;77.60;;;;;;4901039;29;20131;-72
2022/10/23 09:12:20;;;;;;;15.70;6.63;;;16.30;77.70;;;;;;4901876;29;20357;-76
2022/10/23 09:15:02;;;;;;;15.18;6.68;;;16.30;77.90;;;;;;4901807;29;20098;-74
2022/10/23 09:17:39;;;;;;;13.00;5.95;;;16.30;78.10;;;;;;4901346;29;20076;-75
2022/10/23 09:20:20;;;;;;;16.65;7.45;;;16.30;78.20;;;;;;4901629;29;20053;-75
2022/10/23 09:23:02;;;;;;;14.57;6.65;;;16.30;77.90;;;;;;4885754;29;20056;-75
2022/10/23 09:25:38;;;;;;;12.80;6.68;;;16.30;78.10;;;;;;4901677;29;20472;-74
2022/10/23 09:28:04;;;;;;;9.18;5.95;;;16.30;78.30;;;;;;4884858;29;20147;-74
2022/10/23 09:30:35;;;;;;;9.43;5.78;;;16.30;78.40;;;;;;4885157;29;20048;-76
2022/10/23 09:33:15;;;;;;;14.77;6.22;;;16.30;78.50;;;;;;4884158;29;20490;-75
2022/10/23 09:36:01;;;;;;;11.57;5.85;;;16.40;78.50;;;;;;4868356;29;20040;-73
2022/10/23 09:38:35;;;;;;;15.90;5.88;;;16.30;78.40;;;;;;4899567;29;20358;-74
2022/10/23 09:41:19;;;;;;;15.63;6.05;;;16.30;78.50;;;;;;4901077;29;20420;-73
2022/10/23 09:43:45;;;;;;;14.48;6.47;;;16.40;78.60;;;;;;4900921;29;20130;-75
2022/10/23 09:46:11;;;;;;;13.35;5.88;;;16.30;78.80;;;;;;4884711;29;20059;-74
2022/10/23 09:48:41;;;;;;;15.10;5.47;;;16.40;78.90;;;;;;4900812;29;20052;-73
2022/10/23 09:51:20;;;;;;;15.15;5.43;;;16.40;79.00;;;;;;4900895;29;20048;-73
2022/10/23 09:53:55;;;;;;;10.95;5.85;;;16.40;79.10;;;;;;4884699;29;20064;-76
2022/10/23 09:56:39;;;;;;;8.48;5.85;;;16.40;79.10;;;;;;4884399;29;20053;-75
2022/10/23 09:59:18;;;;;;;;;;;16.40;79.00;;;;;;4900815;29;20048;-72
2022/10/23 10:01:56;;;;;;;16.55;5.90;;;16.40;78.90;;;;;;4900749;29;19923;-73
2022/10/23 10:04:40;;;;;;;19.63;6.07;;;16.40;79.30;;;;;;4884134;29;20041;-77
2022/10/23 10:07:39;;;;;;;22.02;10.07;;;16.40;79.40;;;;;;4899756;29;20040;-78
2022/10/23 10:10:13;;;;;;;22.20;9.18;;;16.40;79.40;;;;;;4869236;29;20467;-79
2022/10/23 10:12:49;;;;;;;22.95;8.02;;;16.40;79.70;;;;;;4900977;29;20040;-79
2022/10/23 10:15:47;;;;;;;20.65;7.10;;;16.40;79.90;;;;;;4868040;29;20054;-73
2022/10/23 10:18:42;;;;;;;16.13;7.53;;;16.40;80.10;;;;;;4900493;29;20044;-77
2022/10/23 10:21:07;;;;;;;19.73;7.22;;;16.40;80.10;;;;;;4897500;29;20438;-73
2022/10/23 10:23:49;;;;;;;15.35;7.68;;;16.40;80.50;;;;;;4884073;29;20048;-76
2022/10/23 10:26:40;;;;;;;11.05;6.55;;;16.40;80.30;;;;;;4900699;29;20086;-77
2022/10/23 10:29:30;;;;;;;10.40;6.53;;;16.40;80.80;;;;;;4876912;29;20044;-77
2022/10/23 10:32:12;;;;;;;11.40;6.35;;;16.40;81.00;;;;;;4867834;29;20084;-79
2022/10/23 10:34:47;;;;;;;13.48;6.22;;;16.40;81.00;;;;;;4899985;29;20049;-76
2022/10/23 10:37:49;;;;;;;11.85;5.57;;;16.40;81.00;;;;;;4900334;29;20048;-76
2022/10/23 10:40:48;;;;;;;16.85;6.07;;;16.40;80.90;;;;;;4883167;29;20123;-76
2022/10/23 10:43:40;;;;;;;13.05;5.47;;;16.40;80.80;;;;;;4883406;29;20044;-76
2022/10/23 10:46:11;;;;;;;11.38;4.72;;;16.40;80.80;;;;;;4883703;29;20352;-77
2022/10/23 10:48:55;;;;;;;10.95;4.32;;;16.40;80.90;;;;;;4899653;29;20549;-77
2022/10/23 10:51:36;;;;;;;;;;;16.40;80.80;;;;;;4881866;29;20056;-75
2022/10/23 10:54:14;;;;;;;11.73;4.43;;;16.40;80.40;;;;;;4881510;29;20329;-76
2022/10/23 10:56:43;;;;;;;18.05;5.28;;;16.40;80.80;;;;;;4881628;29;20057;-78
2022/10/23 10:59:30;;;;;;;13.00;5.10;;;16.50;81.00;;;;;;4904120;29;20048;-77
2022/10/23 11:01:56;;;;;;;11.73;4.55;;;16.40;81.00;;;;;;4899865;29;20043;-76
2022/10/23 11:04:50;;;;;;;11.02;4.47;;;16.50;81.00;;;;;;4899994;29;20036;-78
2022/10/23 11:07:20;;;;;;;10.27;4.15;;;16.50;80.90;;;;;;4900085;29;20040;-76
2022/10/23 11:09:47;;;;;;;10.20;4.30;;;16.40;80.90;;;;;;4899651;29;20052;-77
2022/10/23 11:12:25;;;;;;;7.90;3.58;;;16.50;81.00;;;;;;4899759;29;20456;-77
2022/10/23 11:14:52;;;;;;;8.02;4.00;;;16.50;81.40;;;;;;4900290;29;20052;-77
2022/10/23 11:17:26;;;;;;;7.50;4.07;;;16.50;80.80;;;;;;4899515;29;20044;-76
2022/10/23 11:20:15;;;;;;;10.20;3.35;;;16.50;80.80;;;;;;4883077;29;20072;-77
2022/10/23 11:22:46;;;;;;;7.63;3.15;;;16.50;80.70;;;;;;4889648;29;20500;-78
2022/10/23 11:25:51;;;;;;;10.80;3.30;;;16.50;80.70;;;;;;4899959;29;20410;-76
2022/10/23 11:28:59;;;;;;;7.03;2.90;;;16.50;80.50;;;;;;4886719;29;20065;-75
2022/10/23 11:31:25;;;;;;;6.88;2.80;;;16.50;81.10;;;;;;4862812;29;20071;-78
2022/10/23 11:34:01;;;;;;;6.10;2.72;;;16.50;80.60;;;;;;4884647;29;20381;-77
2022/10/23 11:36:51;;;;;;;10.85;3.10;;;16.50;80.50;;;;;;4884935;29;20087;-76
2022/10/23 11:39:24;;;;;;;11.75;2.75;;;16.50;80.40;;;;;;4886440;29;20389;-76
2022/10/23 11:41:54;;;;;;;9.93;2.58;;;16.50;80.40;;;;;;4903974;29;20048;-78
2022/10/23 11:44:38;;;;;;;6.68;2.50;;;16.50;80.40;;;;;;4903661;29;20335;-77
2022/10/23 11:47:35;;;;;;;7.03;2.28;;;16.50;80.30;;;;;;4886961;29;20068;-78
2022/10/23 11:50:07;;;;;;;7.63;2.80;;;16.50;80.20;;;;;;4903411;29;20056;-77
2022/10/23 11:52:58;;;;;;;5.13;2.15;;;16.50;80.20;;;;;;4903093;29;20063;-78
2022/10/23 11:55:29;;;;;;;4.53;2.15;;;16.50;80.10;;;;;;4886985;29;20052;-77
2022/10/23 11:58:20;;;;;;;5.63;2.22;;;16.60;80.20;;;;;;4886746;29;20477;-77
2022/10/23 12:01:38;;;;;;;4.38;2.38;;;16.60;80.00;;;;;;4902693;29;20410;-77
2022/10/23 12:04:17;;;;;;;4.63;2.33;;;16.60;80.00;;;;;;4851381;29;20057;-76
2022/10/23 12:06:58;;;;;;;4.82;2.13;;;16.60;80.00;;;;;;4903189;29;20091;-76
2022/10/23 12:09:27;;;;;;;5.28;2.30;;;16.60;80.00;;;;;;4886897;29;20131;-76
2022/10/23 12:12:07;;;;;;;6.90;2.25;;;16.60;80.00;;;;;;4902605;29;20092;-77
2022/10/23 12:14:35;;;;;;;4.38;1.90;;;16.60;79.80;;;;;;4903326;29;20055;-77
2022/10/23 12:17:17;;;;;;;3.13;1.60;;;16.60;79.90;;;;;;4903492;29;20357;-78
2022/10/23 12:19:48;;;;;;;5.38;2.00;;;16.60;79.80;;;;;;4886727;29;20128;-76
2022/10/23 12:22:15;;;;;;;4.35;2.25;;;16.60;79.80;;;;;;4902726;29;20052;-76
2022/10/23 12:25:16;;;;;;;9.57;2.10;;;16.60;79.80;;;;;;4902922;29;20132;-76
2022/10/23 12:27:51;;;;;;;2.35;1.55;;;16.60;79.80;;;;;;4886751;29;20092;-78
2022/10/23 12:30:21;;;;;;;5.82;1.95;;;16.60;79.80;;;;;;4886253;29;20052;-76
2022/10/23 12:33:02;;;;;;;3.70;1.65;;;16.50;79.80;;;;;;4901792;29;20458;-75
2022/10/23 12:35:33;;;;;;;5.03;1.88;;;16.60;79.90;;;;;;4902195;29;20079;-77
2022/10/23 12:38:03;;;;;;;4.13;1.63;;;16.50;79.70;;;;;;4884446;29;20098;-76
2022/10/23 12:40:29;;;;;;;5.50;1.70;;;16.50;79.70;;;;;;4885867;29;20048;-78
2022/10/23 12:42:58;;;;;;;2.90;1.52;;;16.50;79.70;;;;;;4902193;29;20044;-76
2022/10/23 12:45:31;;;;;;;6.32;1.77;;;16.50;79.80;;;;;;4902675;29;20052;-77
2022/10/23 12:47:57;;;;;;;9.27;1.93;;;16.50;80.10;;;;;;4902163;29;20049;-74
2022/10/23 12:50:28;;;;;;;3.65;1.52;;;16.50;80.10;;;;;;4902721;29;20051;-76
2022/10/23 12:53:01;;;;;;;5.05;1.92;;;16.50;80.10;;;;;;4901996;29;20041;-75
2022/10/23 12:55:29;;;;;;;;;;;16.50;80.10;;;;;;4902258;29;20060;-77
2022/10/23 12:57:55;;;;;;;4.10;1.90;;;16.50;79.80;;;;;;4902381;29;20022;-76
2022/10/23 13:00:23;;;;;;;9.35;2.20;;;16.50;80.20;;;;;;4885435;29;20197;-76
2022/10/23 13:03:03;;;;;;;4.82;1.48;;;16.60;80.30;;;;;;4901826;29;20057;-76
2022/10/23 13:05:30;;;;;;;6.75;2.20;;;16.60;80.20;;;;;;4902451;29;20107;-76
2022/10/23 13:07:58;;;;;;;5.50;1.85;;;16.50;80.30;;;;;;4902435;29;20045;-76
2022/10/23 13:10:24;;;;;;;7.93;2.15;;;16.50;80.20;;;;;;4902100;29;20484;-77
2022/10/23 13:12:55;;;;;;;2.97;1.70;;;16.50;80.20;;;;;;4901450;29;20052;-76
2022/10/23 13:15:22;;;;;;;3.22;1.23;;;16.50;80.30;;;;;;4901702;29;20080;-76
2022/10/23 13:17:57;;;;;;;7.10;2.15;;;16.50;80.20;;;;;;4901835;29;20059;-76
2022/10/23 13:20:27;;;;;;;8.57;2.05;;;16.50;80.10;;;;;;4901834;29;20063;-76
2022/10/23 13:23:08;;;;;;;6.20;1.55;;;16.50;80.20;;;;;;4901463;29;20060;-77
2022/10/23 13:25:36;;;;;;;4.55;1.65;;;16.50;80.10;;;;;;4902096;29;20346;-77
2022/10/23 13:28:16;;;;;;;6.70;1.75;;;16.50;80.20;;;;;;4901872;29;20057;-78
2022/10/23 13:30:45;;;;;;;3.20;1.48;;;16.50;80.20;;;;;;4901623;29;20089;-76
2022/10/23 13:33:19;;;;;;;6.10;2.20;;;16.50;80.10;;;;;;4901262;29;20056;-75
2022/10/23 13:35:59;;;;;;;5.70;1.98;;;16.50;80.00;;;;;;4901802;29;20060;-78
2022/10/23 13:38:36;;;;;;;7.78;2.25;;;16.50;80.30;;;;;;4901367;29;20381;-76
2022/10/23 13:41:04;;;;;;;12.55;1.88;;;16.50;80.70;;;;;;4901583;29;20343;-76